Time;durP1;ratioP1;P1;durP2;ratioP2;P2;SDS_P1;SDS_P2;PMS_P1;PMS_P2;Temp;Humidity;BMP_temperature;BMP_pressure;BME280_temperature;BME280_humidity;BME280_pressure;Samples;Min_cycle;Max_cycle;Signal;HPM_P1;HPM_P2
2021/01/29 00:01:06;;;;;;;11.10;7.53;;;9.90;99.90;;;;;;5030111;28;20742;-62
2021/01/29 00:03:34;;;;;;;19.50;8.23;;;9.90;99.90;;;;;;5025409;28;20228;-62
2021/01/29 00:07:01;;;;;;;19.53;8.03;;;9.90;99.90;;;;;;5012401;28;20221;-62
2021/01/29 00:09:32;;;;;;;17.87;7.97;;;9.90;99.90;;;;;;4984581;28;20656;-62
2021/01/29 00:13:19;;;;;;;18.23;7.90;;;10.00;99.90;;;;;;4962632;28;20602;-63
2021/01/29 00:16:20;;;;;;;16.07;7.83;;;10.00;99.90;;;;;;4940695;28;20313;-63
2021/01/29 00:19:42;;;;;;;16.83;8.07;;;10.00;99.90;;;;;;4992806;28;20225;-62
2021/01/29 00:22:33;;;;;;;17.83;7.53;;;10.00;99.90;;;;;;4974188;28;20265;-62
2021/01/29 00:25:18;;;;;;;;;;;;;;;;;;;;;
2021/01/29 00:28:37;;;;;;;11.30;7.53;;;10.00;99.90;;;;;;5040658;28;20698;-62
2021/01/29 00:31:05;;;;;;;10.70;7.60;;;10.10;99.90;;;;;;5038845;28;20290;-62
2021/01/29 00:37:25;;;;;;;14.60;7.50;;;10.00;99.90;;;;;;5047439;28;20259;-62
2021/01/29 00:43:26;;;;;;;9.57;6.27;;;10.10;99.90;;;;;;5009254;28;20218;-62
2021/01/29 00:46:38;;;;;;;9.30;6.10;;;10.10;99.90;;;;;;5034228;28;20607;-62
2021/01/29 00:49:28;;;;;;;11.13;5.43;;;10.00;99.90;;;;;;4992038;28;20214;-62
2021/01/29 00:52:52;;;;;;;10.20;5.70;;;10.10;99.90;;;;;;4992365;28;20254;-62
2021/01/29 00:56:26;;;;;;;11.90;5.53;;;10.00;99.90;;;;;;4999791;28;20232;-62
2021/01/29 01:02:06;;;;;;;9.30;4.87;;;10.10;99.90;;;;;;4946908;28;20285;-63
2021/01/29 01:04:55;;;;;;;8.30;4.73;;;10.10;99.90;;;;;;4992754;28;20278;-62
2021/01/29 01:10:34;;;;;;;9.97;4.93;;;10.10;99.90;;;;;;5008577;28;20221;-62
2021/01/29 01:13:08;;;;;;;6.37;4.03;;;10.10;99.90;;;;;;5021695;28;20267;-62
2021/01/29 01:15:50;;;;;;;6.33;4.30;;;10.10;99.90;;;;;;5033947;28;20229;-62
2021/01/29 01:18:19;;;;;;;7.47;4.57;;;10.00;99.90;;;;;;5026759;28;20213;-62
2021/01/29 01:24:42;;;;;;;5.77;4.20;;;10.10;99.90;;;;;;5021084;28;20631;-62
2021/01/29 01:27:31;;;;;;;6.83;4.23;;;10.10;99.90;;;;;;5027426;28;20228;-63
2021/01/29 01:30:15;;;;;;;4.50;4.10;;;10.10;99.90;;;;;;5022992;28;20225;-62
2021/01/29 01:33:29;;;;;;;6.40;4.17;;;10.10;99.90;;;;;;5027336;28;20214;-62
2021/01/29 01:36:53;;;;;;;7.00;4.57;;;10.10;99.90;;;;;;5024933;28;20229;-62
2021/01/29 01:40:18;;;;;;;5.37;4.87;;;10.10;99.90;;;;;;5029889;28;20221;-62
2021/01/29 01:42:54;;;;;;;8.20;4.73;;;10.10;99.90;;;;;;5061475;28;20347;-62
2021/01/29 01:49:52;;;;;;;7.33;4.73;;;10.10;99.90;;;;;;5070226;28;20219;-62
2021/01/29 01:52:44;;;;;;;5.03;4.63;;;10.10;99.90;;;;;;5057861;28;20211;-62
2021/01/29 01:55:59;;;;;;;7.27;4.80;;;10.10;99.90;;;;;;5005580;28;20226;-61
2021/01/29 01:59:20;;;;;;;;;;;;;;;;;;;;;
2021/01/29 02:11:20;;;;;;;2.33;2.13;;;10.00;99.90;;;;;;4871697;29;20234;-62
2021/01/29 02:13:55;;;;;;;2.47;2.27;;;10.10;99.90;;;;;;4864717;29;20237;-62
2021/01/29 02:16:52;;;;;;;2.43;2.20;;;10.10;99.90;;;;;;4939797;28;20257;-61
2021/01/29 02:28:01;;;;;;;2.60;2.40;;;10.10;99.90;;;;;;4914934;29;20694;-62
2021/01/29 02:31:37;;;;;;;3.17;2.97;;;10.10;99.90;;;;;;4930125;29;20691;-62
2021/01/29 02:35:12;;;;;;;2.83;2.70;;;10.10;99.90;;;;;;4936371;29;20252;-62
2021/01/29 02:38:50;;;;;;;3.10;2.80;;;10.10;99.90;;;;;;4911746;29;20227;-62
2021/01/29 02:42:21;;;;;;;3.23;2.80;;;10.10;99.90;;;;;;4959203;28;20242;-62
2021/01/29 02:49:03;;;;;;;3.30;2.40;;;10.10;99.90;;;;;;4901967;29;20237;-61
2021/01/29 02:52:25;;;;;;;2.40;2.30;;;10.20;99.90;;;;;;4906017;29;20236;-61
2021/01/29 02:57:00;;;;;;;3.97;1.97;;;10.20;99.90;;;;;;4906429;29;20222;-62
2021/01/29 02:59:41;;;;;;;2.20;2.10;;;10.10;99.90;;;;;;4987319;28;20227;-61
2021/01/29 03:02:58;;;;;;;2.30;2.20;;;10.10;99.90;;;;;;4998887;28;20269;-61
2021/01/29 03:06:18;;;;;;;2.37;2.17;;;10.10;99.90;;;;;;4970853;28;20214;-61
2021/01/29 03:09:15;;;;;;;2.40;2.30;;;10.10;99.90;;;;;;4966474;28;20732;-61
2021/01/29 03:15:34;;;;;;;2.43;2.33;;;10.00;99.90;;;;;;4980677;28;20306;-61
2021/01/29 03:21:28;;;;;;;3.60;3.20;;;10.00;99.90;;;;;;5035534;28;20333;-61
2021/01/29 03:24:38;;;;;;;3.30;3.00;;;9.90;99.90;;;;;;5046744;28;20216;-61
2021/01/29 03:27:24;;;;;;;3.00;2.80;;;9.90;99.90;;;;;;5019291;28;20224;-61
2021/01/29 03:30:34;;;;;;;3.47;2.50;;;9.80;99.90;;;;;;5026150;28;20228;-61
2021/01/29 03:33:40;;;;;;;2.60;2.50;;;9.80;99.90;;;;;;5008764;28;20586;-61
2021/01/29 03:37:00;;;;;;;2.70;2.57;;;9.70;99.90;;;;;;4997362;28;20278;-61
2021/01/29 03:39:51;;;;;;;4.90;2.60;;;9.70;99.90;;;;;;4966252;28;20227;-61
2021/01/29 03:43:14;;;;;;;2.90;2.63;;;9.70;99.90;;;;;;4945671;28;20228;-62
2021/01/29 03:46:52;;;;;;;2.50;2.40;;;9.70;99.90;;;;;;4955404;29;20228;-61
2021/01/29 03:50:03;;;;;;;3.23;2.83;;;9.80;99.90;;;;;;4952906;28;20258;-62
2021/01/29 03:53:37;;;;;;;5.47;2.70;;;9.80;99.90;;;;;;4954328;29;20227;-61
2021/01/29 03:56:51;;;;;;;4.03;2.87;;;9.80;99.90;;;;;;4946849;29;20228;-62
2021/01/29 04:01:16;;;;;;;5.97;2.97;;;9.70;99.90;;;;;;4927329;28;20233;-61
2021/01/29 04:04:42;;;;;;;;;;;;;;;;;;;;;
2021/01/29 04:10:32;;;;;;;7.93;3.00;;;9.70;99.90;;;;;;4953690;28;20216;-61
2021/01/29 04:13:46;;;;;;;;;;;;;;;;;;;;;
2021/01/29 04:17:25;;;;;;;5.57;3.20;;;9.70;99.90;;;;;;4999448;28;20264;-61
2021/01/29 04:20:44;;;;;;;14.23;3.67;;;9.60;99.90;;;;;;4930985;29;20240;-61
2021/01/29 04:24:36;;;;;;;8.60;4.07;;;9.60;99.90;;;;;;4895493;29;20237;-61
2021/01/29 04:31:42;;;;;;;12.10;2.47;;;9.60;99.90;;;;;;4850352;29;20226;-61
2021/01/29 04:38:37;;;;;;;10.80;2.60;;;9.60;99.90;;;;;;4881169;29;20234;-61
2021/01/29 04:41:43;;;;;;;8.10;2.60;;;9.60;99.90;;;;;;4878686;29;20234;-62
2021/01/29 04:49:13;;;;;;;12.07;2.30;;;9.60;99.90;;;;;;4882423;29;20318;-62
2021/01/29 04:52:31;;;;;;;16.80;2.93;;;9.50;99.90;;;;;;4878878;29;20225;-61
2021/01/29 04:59:48;;;;;;;12.83;2.57;;;9.60;99.90;;;;;;4874423;29;20219;-61
2021/01/29 05:06:42;;;;;;;20.43;4.30;;;9.50;99.90;;;;;;4971668;28;20234;-62
2021/01/29 05:13:44;;;;;;;18.90;3.60;;;9.60;99.90;;;;;;4849119;28;20681;-61
2021/01/29 05:17:22;;;;;;;29.17;4.03;;;9.60;99.90;;;;;;4991408;28;20222;-61
2021/01/29 05:43:46;;;;;;;15.53;3.30;;;9.80;99.90;;;;;;5017820;28;20225;-61
2021/01/29 05:49:44;;;;;;;20.03;3.97;;;9.80;99.90;;;;;;5029054;28;20219;-62
2021/01/29 06:00:09;;;;;;;26.37;4.03;;;9.90;99.90;;;;;;5021565;28;20221;-62
2021/01/29 06:03:19;;;;;;;27.53;4.17;;;9.90;99.90;;;;;;5020667;28;20648;-62
2021/01/29 06:10:43;;;;;;;29.27;4.83;;;9.80;99.90;;;;;;4973846;28;20281;-63
2021/01/29 06:17:51;;;;;;;23.40;4.27;;;9.80;99.90;;;;;;4937067;29;20244;-62
2021/01/29 06:20:56;;;;;;;30.43;4.10;;;9.80;99.90;;;;;;4948233;29;20271;-62
2021/01/29 06:24:19;;;;;;;32.13;4.43;;;9.70;99.90;;;;;;4951353;29;20567;-62
2021/01/29 06:27:29;;;;;;;25.10;4.57;;;9.70;99.90;;;;;;4951980;29;20766;-63
2021/01/29 06:35:22;;;;;;;27.83;4.20;;;9.50;99.90;;;;;;4987439;28;20252;-62
2021/01/29 06:38:18;;;;;;;25.50;3.60;;;9.50;99.90;;;;;;4994844;28;20321;-63
2021/01/29 06:41:36;;;;;;;33.13;4.60;;;9.40;99.90;;;;;;4971684;28;20640;-62
2021/01/29 06:45:13;;;;;;;26.23;4.60;;;9.30;99.90;;;;;;4991975;28;20223;-63
2021/01/29 06:52:45;;;;;;;26.93;4.53;;;9.20;99.90;;;;;;4980290;28;20836;-63
2021/01/29 07:10:19;;;;;;;34.50;5.27;;;9.00;99.90;;;;;;4896706;29;20298;-62
2021/01/29 07:53:18;;;;;;;37.60;5.47;;;8.90;99.90;;;;;;4794858;29;20748;-62
2021/01/29 07:56:24;;;;;;;31.30;5.13;;;8.90;99.90;;;;;;4786679;30;20233;-62
2021/01/29 07:59:29;;;;;;;45.90;6.13;;;9.00;99.90;;;;;;4788088;29;20764;-62
2021/01/29 08:02:14;;;;;;;34.27;6.30;;;9.10;99.90;;;;;;4787474;29;20237;-63
2021/01/29 08:05:13;;;;;;;44.77;5.73;;;9.10;99.90;;;;;;4824793;29;20229;-62
2021/01/29 08:11:43;;;;;;;30.27;4.70;;;9.20;99.90;;;;;;4822500;29;20235;-63
2021/01/29 08:15:04;;;;;;;37.80;6.30;;;9.40;99.90;;;;;;4857372;29;20222;-62
2021/01/29 08:18:19;;;;;;;38.00;5.90;;;9.40;99.90;;;;;;4802194;29;20757;-62
2021/01/29 08:21:33;;;;;;;49.40;6.27;;;9.40;99.90;;;;;;4808526;29;20629;-62
2021/01/29 08:24:34;;;;;;;48.13;6.33;;;9.50;99.90;;;;;;4839836;29;20231;-63
2021/01/29 08:27:50;;;;;;;40.23;6.67;;;9.50;99.90;;;;;;4915792;29;20233;-62
2021/01/29 08:30:59;;;;;;;36.90;5.37;;;9.60;99.90;;;;;;4875980;29;20689;-62
2021/01/29 08:34:08;;;;;;;30.10;5.17;;;9.60;99.90;;;;;;4874074;29;20242;-63
2021/01/29 08:37:21;;;;;;;42.23;5.80;;;9.60;99.90;;;;;;4836167;29;20338;-63
2021/01/29 08:40:24;;;;;;;49.87;5.80;;;9.70;99.90;;;;;;4791636;29;20260;-63
2021/01/29 08:43:30;;;;;;;35.47;6.37;;;9.70;99.90;;;;;;4864702;29;20642;-62
2021/01/29 08:49:55;;;;;;;40.67;6.03;;;9.70;99.90;;;;;;4951915;29;20295;-62
2021/01/29 08:53:10;;;;;;;39.90;6.27;;;9.70;99.90;;;;;;4951838;28;20235;-62
2021/01/29 08:56:24;;;;;;;31.70;5.43;;;9.80;99.90;;;;;;4929650;29;20733;-62
2021/01/29 09:02:56;;;;;;;42.37;6.37;;;9.90;99.90;;;;;;4973977;28;20357;-62
2021/01/29 09:06:02;;;;;;;31.10;5.70;;;10.00;99.90;;;;;;4948115;28;20256;-62
2021/01/29 09:08:34;;;;;;;31.27;5.97;;;10.00;99.90;;;;;;4979630;28;20226;-63
2021/01/29 09:11:47;;;;;;;33.20;5.07;;;10.00;99.90;;;;;;4985374;28;20281;-63
2021/01/29 09:14:24;;;;;;;28.80;5.67;;;10.10;99.90;;;;;;4980217;28;20237;-62
2021/01/29 09:17:10;;;;;;;31.70;5.33;;;10.10;99.90;;;;;;4996239;28;20217;-62
2021/01/29 09:19:57;;;;;;;26.57;4.73;;;10.20;99.90;;;;;;5003846;28;20209;-63
2021/01/29 09:22:44;;;;;;;38.77;5.60;;;10.40;99.90;;;;;;5010621;28;20245;-62
2021/01/29 09:25:45;;;;;;;29.00;4.97;;;10.50;99.90;;;;;;5014577;28;20276;-62
2021/01/29 09:31:33;;;;;;;23.37;4.90;;;10.40;99.90;;;;;;4996825;28;20210;-63
2021/01/29 09:34:20;;;;;;;27.70;5.00;;;10.50;99.90;;;;;;5010278;28;20233;-62
2021/01/29 09:37:11;;;;;;;33.07;5.83;;;10.50;99.90;;;;;;5018047;28;20605;-62
2021/01/29 09:40:08;;;;;;;29.77;5.10;;;10.50;99.90;;;;;;5021692;28;20554;-63
2021/01/29 09:43:08;;;;;;;30.97;5.30;;;10.70;99.90;;;;;;5011266;28;20315;-63
2021/01/29 09:46:12;;;;;;;30.93;5.30;;;10.80;99.90;;;;;;5006989;28;20225;-63
2021/01/29 09:48:48;;;;;;;33.50;5.57;;;10.90;99.90;;;;;;4976763;28;20722;-63
2021/01/29 09:51:53;;;;;;;39.67;5.33;;;10.80;99.90;;;;;;4970975;28;20250;-62
2021/01/29 09:54:43;;;;;;;37.20;6.33;;;10.70;99.90;;;;;;4913321;29;20319;-62
2021/01/29 09:57:34;;;;;;;34.50;5.47;;;10.60;99.90;;;;;;4912461;29;20244;-63
2021/01/29 10:00:13;;;;;;;44.37;5.77;;;10.50;99.90;;;;;;4856208;29;20623;-62
2021/01/29 10:03:08;;;;;;;30.97;5.00;;;10.40;99.90;;;;;;4869801;29;20227;-62
2021/01/29 10:05:46;;;;;;;30.70;5.33;;;10.40;99.90;;;;;;4855712;29;20625;-62
2021/01/29 10:08:20;;;;;;;21.30;4.40;;;10.40;99.90;;;;;;4863590;29;20306;-62
2021/01/29 10:11:03;;;;;;;36.33;5.70;;;10.40;99.90;;;;;;4876919;29;20743;-62
2021/01/29 10:14:01;;;;;;;35.50;5.57;;;10.40;99.90;;;;;;4932391;29;20230;-62
2021/01/29 10:16:51;;;;;;;32.37;5.43;;;10.50;99.90;;;;;;4934333;29;20235;-62
2021/01/29 10:19:39;;;;;;;32.70;5.27;;;10.90;99.90;;;;;;4946969;29;20719;-62
2021/01/29 10:22:58;;;;;;;35.33;4.90;;;11.10;99.90;;;;;;4944920;28;20216;-62
2021/01/29 10:26:03;;;;;;;32.63;5.10;;;11.30;99.90;;;;;;5008149;28;20233;-63
2021/01/29 10:32:43;;;;;;;41.63;4.90;;;11.50;99.90;;;;;;4981754;28;20552;-63
2021/01/29 10:35:33;;;;;;;31.30;4.97;;;11.40;99.90;;;;;;5013457;28;20213;-63
2021/01/29 10:38:23;;;;;;;26.07;4.93;;;11.40;99.90;;;;;;5008762;28;20230;-62
2021/01/29 10:41:03;;;;;;;22.00;3.97;;;11.20;99.90;;;;;;5015316;28;20388;-63
2021/01/29 10:47:00;;;;;;;28.87;4.70;;;11.00;99.90;;;;;;5010515;28;20214;-63
2021/01/29 10:50:12;;;;;;;33.70;5.33;;;10.90;99.90;;;;;;5009490;28;20222;-63
2021/01/29 10:53:17;;;;;;;33.70;5.03;;;10.90;99.90;;;;;;4930826;28;20238;-62
2021/01/29 10:56:13;;;;;;;29.23;4.43;;;10.90;99.90;;;;;;5008306;28;20747;-62
2021/01/29 10:58:52;;;;;;;36.60;4.80;;;10.80;99.90;;;;;;5021364;28;20225;-62
2021/01/29 11:01:30;;;;;;;32.90;5.20;;;10.90;99.90;;;;;;5015018;28;20306;-62
2021/01/29 11:04:04;;;;;;;23.37;5.03;;;10.80;99.90;;;;;;5014173;28;20296;-62
2021/01/29 11:06:48;;;;;;;29.60;4.83;;;10.80;99.90;;;;;;5007890;28;20292;-62
2021/01/29 11:09:23;;;;;;;32.93;5.00;;;10.90;99.90;;;;;;5009374;28;20230;-63
2021/01/29 11:12:39;;;;;;;31.50;4.73;;;10.90;99.90;;;;;;5004636;28;20210;-63
2021/01/29 11:15:37;;;;;;;26.43;4.60;;;10.80;99.90;;;;;;4966349;28;20370;-63
2021/01/29 11:18:15;;;;;;;31.83;4.83;;;10.80;99.90;;;;;;4975123;28;20223;-64
2021/01/29 11:20:44;;;;;;;24.00;4.73;;;10.70;99.90;;;;;;4973549;28;20298;-63
2021/01/29 11:23:57;;;;;;;30.40;5.93;;;10.70;99.90;;;;;;4973734;28;20227;-62
2021/01/29 11:26:52;;;;;;;29.73;4.80;;;10.50;99.90;;;;;;4931629;29;20615;-62
2021/01/29 11:29:40;;;;;;;43.37;5.53;;;10.20;99.90;;;;;;4936303;29;20216;-62
2021/01/29 11:32:35;;;;;;;21.20;4.10;;;10.00;99.90;;;;;;4913170;29;20224;-62
2021/01/29 11:35:23;;;;;;;25.53;4.77;;;9.80;99.90;;;;;;4901650;29;20249;-62
2021/01/29 11:41:47;;;;;;;26.57;5.03;;;9.70;99.90;;;;;;4945442;29;20235;-63
2021/01/29 11:44:46;;;;;;;30.03;4.57;;;9.60;99.90;;;;;;4980369;28;20561;-62
2021/01/29 11:47:45;;;;;;;28.10;5.17;;;9.60;99.90;;;;;;4983203;28;20260;-62
2021/01/29 11:50:41;;;;;;;24.43;4.57;;;9.70;99.90;;;;;;4972138;28;20219;-62
2021/01/29 11:53:46;;;;;;;33.50;5.40;;;9.90;99.90;;;;;;4956247;28;20527;-62
2021/01/29 11:56:19;;;;;;;30.53;4.33;;;10.20;99.90;;;;;;4934238;29;20228;-63
2021/01/29 11:59:36;;;;;;;32.67;5.17;;;10.50;99.90;;;;;;4910759;29;20342;-63
2021/01/29 12:05:26;;;;;;;25.27;4.87;;;11.30;99.90;;;;;;4873135;29;20321;-63
2021/01/29 12:09:09;;;;;;;21.27;3.80;;;11.80;99.90;;;;;;4877366;29;20241;-62
2021/01/29 12:12:03;;;;;;;26.67;4.17;;;12.00;99.90;;;;;;4865898;29;20718;-62
2021/01/29 12:15:14;;;;;;;28.73;5.10;;;11.70;99.90;;;;;;4924378;28;20283;-63
2021/01/29 12:18:23;;;;;;;23.33;4.40;;;11.40;99.90;;;;;;4952172;28;20224;-63
2021/01/29 12:21:09;;;;;;;29.43;4.97;;;11.30;99.90;;;;;;4936624;28;20227;-63
2021/01/29 12:24:02;;;;;;;32.13;5.20;;;11.10;99.90;;;;;;4954805;28;20246;-62
2021/01/29 12:26:45;;;;;;;27.20;5.10;;;10.80;99.90;;;;;;4984905;28;20240;-63
2021/01/29 12:30:20;;;;;;;30.10;4.13;;;10.70;99.90;;;;;;5010331;28;20577;-63
2021/01/29 12:33:13;;;;;;;24.57;4.10;;;10.60;99.90;;;;;;5015169;28;20671;-63
2021/01/29 12:35:58;;;;;;;28.87;4.67;;;10.60;99.90;;;;;;5011970;28;20225;-63
2021/01/29 12:38:50;;;;;;;24.13;4.37;;;10.80;99.90;;;;;;5010236;28;20578;-63
2021/01/29 12:41:44;;;;;;;26.17;4.60;;;10.90;99.90;;;;;;5012033;28;20790;-63
2021/01/29 12:44:34;;;;;;;23.13;4.70;;;10.80;99.90;;;;;;5010237;28;20337;-63
2021/01/29 12:47:54;;;;;;;;;;;;;;;;;;;;;
2021/01/29 12:51:18;;;;;;;15.87;2.97;;;11.10;99.90;;;;;;4964420;28;20281;-63
2021/01/29 12:54:32;;;;;;;14.03;3.17;;;11.80;99.90;;;;;;5005480;28;20217;-63
2021/01/29 13:00:41;;;;;;;18.43;3.67;;;11.80;99.90;;;;;;4956763;28;20675;-63
2021/01/29 13:03:48;;;;;;;12.77;3.30;;;11.50;99.90;;;;;;4940355;28;20268;-63
2021/01/29 13:06:41;;;;;;;13.53;3.17;;;11.40;99.90;;;;;;4947183;28;20617;-63
2021/01/29 13:09:40;;;;;;;16.80;3.57;;;11.20;99.90;;;;;;5001334;28;20253;-63
2021/01/29 13:16:01;;;;;;;22.70;3.63;;;10.80;99.90;;;;;;4911089;29;20226;-63
2021/01/29 13:19:05;;;;;;;12.90;3.33;;;10.70;99.90;;;;;;4951536;28;20683;-62
2021/01/29 13:21:52;;;;;;;15.67;3.43;;;10.70;99.90;;;;;;4951829;28;20236;-63
2021/01/29 13:31:57;;;;;;;22.23;3.57;;;10.60;99.90;;;;;;4892872;29;20697;-62
2021/01/29 13:34:43;;;;;;;19.93;3.53;;;10.50;99.90;;;;;;4891135;29;20243;-63
2021/01/29 13:41:42;;;;;;;21.90;4.27;;;10.40;99.90;;;;;;4934819;29;20318;-63
2021/01/29 13:48:18;;;;;;;15.27;3.53;;;10.30;99.90;;;;;;4912213;29;20289;-63
2021/01/29 13:52:03;;;;;;;14.87;4.40;;;10.20;99.90;;;;;;4914302;29;20249;-63
2021/01/29 13:58:52;;;;;;;17.07;3.70;;;10.00;99.90;;;;;;4951822;28;20287;-63
2021/01/29 14:04:55;;;;;;;14.37;3.57;;;10.00;99.90;;;;;;4974105;28;20229;-63
2021/01/29 14:11:17;;;;;;;23.30;3.87;;;9.90;99.90;;;;;;4951795;29;20227;-63
2021/01/29 14:17:00;;;;;;;15.63;5.20;;;10.00;99.90;;;;;;5001898;28;20318;-63
2021/01/29 14:19:46;;;;;;;15.73;4.07;;;10.10;99.90;;;;;;5006191;28;20312;-63
2021/01/29 14:22:25;;;;;;;11.80;3.70;;;10.10;99.90;;;;;;5016003;28;20272;-63
2021/01/29 14:25:40;;;;;;;13.43;3.70;;;10.10;99.90;;;;;;5005867;28;20755;-63
2021/01/29 14:28:38;;;;;;;15.77;3.20;;;10.10;99.90;;;;;;4991499;28;20234;-63
2021/01/29 14:31:37;;;;;;;13.77;3.33;;;10.10;99.90;;;;;;5006288;28;20337;-63
2021/01/29 14:34:31;;;;;;;13.77;3.67;;;10.00;99.90;;;;;;4957990;28;20278;-63
2021/01/29 14:37:16;;;;;;;14.97;4.00;;;10.00;99.90;;;;;;4995948;28;20250;-63
2021/01/29 14:40:02;;;;;;;12.93;3.97;;;10.00;99.90;;;;;;5002450;28;20242;-63
2021/01/29 14:43:01;;;;;;;13.50;3.63;;;10.00;99.90;;;;;;4995583;28;20233;-63
2021/01/29 14:46:06;;;;;;;15.97;4.23;;;9.90;99.90;;;;;;5012843;28;20378;-63
2021/01/29 14:49:06;;;;;;;17.23;3.93;;;9.80;99.90;;;;;;5010706;28;20235;-63
2021/01/29 14:51:55;;;;;;;15.77;3.93;;;9.80;99.90;;;;;;4996243;28;20213;-63
2021/01/29 14:54:46;;;;;;;14.63;3.93;;;9.70;99.90;;;;;;5013566;28;20214;-63
2021/01/29 14:57:17;;;;;;;12.77;3.30;;;9.70;99.90;;;;;;5014143;28;20272;-63
2021/01/29 15:03:27;;;;;;;10.00;3.80;;;9.60;99.90;;;;;;4980835;28;20217;-63
2021/01/29 15:06:00;;;;;;;14.07;4.30;;;9.50;99.90;;;;;;4995944;28;20325;-63
2021/01/29 15:11:36;;;;;;;11.80;4.30;;;9.40;99.90;;;;;;4975003;28;20208;-63
2021/01/29 15:14:53;;;;;;;15.33;5.17;;;9.30;99.90;;;;;;5007068;28;20234;-63
2021/01/29 15:17:49;;;;;;;14.60;4.87;;;9.20;99.90;;;;;;4992933;28;20227;-63
2021/01/29 15:31:45;;;;;;;16.07;5.80;;;9.10;99.90;;;;;;4988954;28;20221;-63
2021/01/29 15:34:57;;;;;;;17.03;5.77;;;9.10;99.90;;;;;;4965604;28;20719;-63
2021/01/29 15:43:09;;;;;;;18.73;5.37;;;9.20;99.90;;;;;;4869518;29;20284;-63
2021/01/29 15:45:59;;;;;;;24.30;5.77;;;9.30;99.90;;;;;;4936036;29;20592;-63
2021/01/29 15:49:18;;;;;;;23.97;5.80;;;9.30;99.90;;;;;;4928301;29;20316;-63
2021/01/29 15:52:24;;;;;;;17.83;5.80;;;9.20;99.90;;;;;;5001871;28;20310;-63
2021/01/29 15:55:10;;;;;;;17.80;6.27;;;9.10;99.90;;;;;;5015593;28;20273;-63
2021/01/29 15:57:56;;;;;;;26.10;6.20;;;9.00;99.90;;;;;;5013113;28;20689;-63
2021/01/29 16:01:08;;;;;;;24.60;8.60;;;9.00;99.90;;;;;;4998086;28;20319;-63
2021/01/29 16:03:53;;;;;;;19.90;6.37;;;9.00;99.90;;;;;;5012104;28;20229;-64
2021/01/29 16:06:50;;;;;;;20.40;5.77;;;9.10;99.90;;;;;;4959976;28;20284;-63
2021/01/29 16:10:19;;;;;;;20.47;5.20;;;9.00;99.90;;;;;;4999771;28;20234;-63
2021/01/29 16:18:58;;;;;;;24.40;5.37;;;8.80;99.90;;;;;;4992989;28;20206;-63
2021/01/29 16:22:26;;;;;;;26.00;5.27;;;8.80;99.90;;;;;;4994941;28;20214;-63
2021/01/29 16:25:11;;;;;;;22.67;5.40;;;8.70;99.90;;;;;;4988410;28;20258;-63
2021/01/29 16:28:38;;;;;;;22.27;5.87;;;8.70;99.90;;;;;;4992417;28;20309;-63
2021/01/29 16:31:32;;;;;;;23.00;5.40;;;8.70;99.90;;;;;;4975447;28;20258;-63
2021/01/29 16:39:38;;;;;;;25.03;7.07;;;8.60;99.90;;;;;;4980178;28;20230;-63
2021/01/29 16:42:25;;;;;;;30.47;7.33;;;8.50;99.90;;;;;;4973166;28;20234;-63
2021/01/29 16:46:24;;;;;;;25.67;7.13;;;8.50;99.90;;;;;;4933093;29;20517;-63
2021/01/29 16:49:17;;;;;;;32.67;8.73;;;8.50;99.90;;;;;;4934733;29;20306;-63
2021/01/29 16:52:11;;;;;;;28.30;6.63;;;8.50;99.90;;;;;;4917808;29;20224;-63
2021/01/29 16:54:40;;;;;;;30.27;7.20;;;8.50;99.90;;;;;;4893553;29;20278;-63
2021/01/29 16:57:48;;;;;;;28.23;8.27;;;8.50;99.90;;;;;;4891339;29;20705;-63
2021/01/29 17:01:28;;;;;;;41.10;8.50;;;8.50;99.90;;;;;;4895535;29;20592;-63
2021/01/29 17:04:57;;;;;;;24.87;5.87;;;8.60;99.90;;;;;;4886682;29;20452;-63
2021/01/29 17:13:51;;;;;;;17.90;5.70;;;8.60;99.90;;;;;;4880262;29;20706;-63
2021/01/29 17:23:10;;;;;;;23.27;6.07;;;8.70;99.90;;;;;;4963750;28;20289;-64
2021/01/29 17:26:18;;;;;;;19.80;5.40;;;8.70;99.90;;;;;;4920538;28;20242;-63
2021/01/29 17:32:44;;;;;;;20.90;5.60;;;8.60;99.90;;;;;;4978772;28;20719;-63
2021/01/29 17:35:34;;;;;;;16.80;5.03;;;8.60;99.90;;;;;;4989623;28;20237;-63
2021/01/29 17:46:33;;;;;;;22.40;5.53;;;8.30;99.90;;;;;;4904012;29;20293;-63
2021/01/29 18:10:33;;;;;;;18.93;5.37;;;7.90;99.90;;;;;;4900387;29;20408;-63
2021/01/29 18:16:45;;;;;;;21.10;9.23;;;7.90;99.90;;;;;;4918604;29;20260;-63
2021/01/29 18:23:16;;;;;;;23.43;7.27;;;7.90;99.90;;;;;;4979474;28;20231;-63
2021/01/29 18:26:05;;;;;;;18.67;6.03;;;7.90;99.90;;;;;;4969899;28;20309;-63
2021/01/29 18:29:18;;;;;;;22.03;8.13;;;8.00;99.90;;;;;;4970004;28;20226;-63
2021/01/29 18:31:53;;;;;;;13.47;5.47;;;8.00;99.90;;;;;;4993420;28;20210;-63
2021/01/29 18:34:27;;;;;;;23.40;5.90;;;8.10;99.90;;;;;;4992515;28;20226;-63
2021/01/29 18:36:57;;;;;;;19.07;5.77;;;8.10;99.90;;;;;;4992919;28;20309;-63
2021/01/29 18:39:25;;;;;;;14.33;5.60;;;8.20;99.90;;;;;;4995970;28;20218;-63
2021/01/29 18:42:21;;;;;;;13.83;4.50;;;8.20;99.90;;;;;;4987084;28;20284;-63
2021/01/29 18:48:04;;;;;;;18.83;4.77;;;8.30;99.90;;;;;;4983694;28;20399;-63
2021/01/29 18:50:44;;;;;;;13.07;4.80;;;8.30;99.90;;;;;;4993102;28;20281;-63
2021/01/29 18:57:11;;;;;;;18.27;6.07;;;8.30;99.90;;;;;;4929400;29;20224;-63
2021/01/29 19:00:12;;;;;;;15.30;5.70;;;8.40;99.90;;;;;;4935937;29;20224;-63
2021/01/29 19:03:05;;;;;;;22.10;6.40;;;8.40;99.90;;;;;;4933085;29;20258;-63
2021/01/29 19:05:39;;;;;;;17.77;6.57;;;8.40;99.90;;;;;;4936509;29;20228;-63
2021/01/29 19:08:07;;;;;;;23.90;8.67;;;8.40;99.90;;;;;;4935570;29;20224;-63
2021/01/29 19:10:35;;;;;;;15.70;6.30;;;8.40;99.90;;;;;;4923835;29;20252;-63
2021/01/29 19:13:47;;;;;;;14.33;6.33;;;8.40;99.90;;;;;;4911111;29;20217;-63
2021/01/29 19:16:41;;;;;;;16.90;6.33;;;8.40;99.90;;;;;;4900366;29;20241;-63
2021/01/29 19:22:22;;;;;;;9.87;5.43;;;8.40;99.90;;;;;;4861180;29;20250;-63
2021/01/29 19:24:57;;;;;;;16.87;5.70;;;8.40;99.90;;;;;;4869408;29;20230;-63
2021/01/29 19:27:37;;;;;;;13.37;5.90;;;8.40;99.90;;;;;;4873343;29;20231;-63
2021/01/29 19:30:52;;;;;;;15.67;5.60;;;8.40;99.90;;;;;;4885248;29;20230;-63
2021/01/29 19:33:25;;;;;;;10.87;5.27;;;8.40;99.90;;;;;;4897748;29;20238;-63
2021/01/29 19:36:34;;;;;;;19.93;6.17;;;8.50;99.90;;;;;;4898915;29;20222;-63
2021/01/29 19:39:22;;;;;;;13.00;5.67;;;8.40;99.90;;;;;;4899711;29;20804;-63
2021/01/29 19:42:09;;;;;;;11.93;5.90;;;8.50;99.90;;;;;;4894498;29;20230;-63
2021/01/29 19:44:50;;;;;;;14.60;5.43;;;8.50;99.90;;;;;;4904574;29;20230;-63
2021/01/29 19:47:19;;;;;;;11.00;4.60;;;8.50;99.90;;;;;;4893609;29;20616;-63
2021/01/29 19:50:10;;;;;;;19.13;6.63;;;8.50;99.90;;;;;;4897975;29;20266;-63
2021/01/29 19:53:07;;;;;;;7.73;4.23;;;8.50;99.90;;;;;;4879091;29;20214;-63
2021/01/29 19:56:05;;;;;;;12.80;4.50;;;8.50;99.90;;;;;;4865861;29;20269;-63
2021/01/29 19:58:35;;;;;;;21.63;6.17;;;8.60;99.90;;;;;;4924579;29;20285;-63
2021/01/29 20:01:38;;;;;;;17.13;5.97;;;8.60;99.90;;;;;;4902775;29;20241;-63
2021/01/29 20:04:35;;;;;;;7.87;4.40;;;8.50;99.90;;;;;;4928795;29;20323;-63
2021/01/29 20:10:36;;;;;;;11.93;5.10;;;8.60;99.90;;;;;;4929232;29;20294;-63
2021/01/29 20:13:11;;;;;;;15.53;6.40;;;8.60;99.90;;;;;;4942624;29;20233;-63
2021/01/29 20:15:47;;;;;;;16.17;7.77;;;8.60;99.90;;;;;;4936413;29;20347;-63
2021/01/29 20:18:45;;;;;;;21.27;7.43;;;8.60;99.90;;;;;;4928327;29;20331;-63
2021/01/29 20:21:44;;;;;;;12.73;5.60;;;8.60;99.90;;;;;;4934038;29;20236;-63
2021/01/29 20:28:56;;;;;;;9.10;4.50;;;8.70;99.90;;;;;;4897287;29;20301;-63
2021/01/29 20:32:27;;;;;;;12.87;5.03;;;8.70;99.90;;;;;;4911418;29;20316;-63
2021/01/29 20:42:19;;;;;;;14.23;4.47;;;8.70;99.90;;;;;;4897486;29;20235;-63
2021/01/29 20:45:03;;;;;;;7.97;4.63;;;8.70;99.90;;;;;;4949211;28;20288;-63
2021/01/29 20:47:30;;;;;;;9.60;4.13;;;8.70;99.90;;;;;;4935141;28;20625;-63
2021/01/29 20:50:17;;;;;;;10.57;3.57;;;8.60;99.90;;;;;;4935247;29;20220;-63
2021/01/29 20:53:27;;;;;;;10.37;4.30;;;8.60;99.90;;;;;;4916786;29;20311;-63
2021/01/29 20:56:02;;;;;;;6.17;3.63;;;8.60;99.90;;;;;;4933030;29;20224;-63
2021/01/29 20:58:30;;;;;;;9.33;4.40;;;8.50;99.90;;;;;;4931052;29;20216;-63
2021/01/29 21:01:28;;;;;;;9.17;4.87;;;8.50;99.90;;;;;;4938345;29;20323;-63
2021/01/29 21:07:23;;;;;;;12.90;6.13;;;8.50;99.90;;;;;;4927878;29;20323;-63
2021/01/29 21:10:35;;;;;;;9.67;4.87;;;8.50;99.90;;;;;;4933760;29;20237;-63
2021/01/29 21:13:20;;;;;;;9.33;4.00;;;8.50;99.90;;;;;;4939062;29;20227;-63
2021/01/29 21:16:13;;;;;;;13.73;4.97;;;8.50;99.90;;;;;;4907766;29;20220;-63
2021/01/29 21:18:40;;;;;;;8.83;3.90;;;8.50;99.90;;;;;;4926337;29;20221;-63
2021/01/29 21:21:38;;;;;;;9.73;3.70;;;8.50;99.90;;;;;;4935215;29;20224;-63
2021/01/29 21:24:27;;;;;;;9.67;3.63;;;8.50;99.90;;;;;;4914926;29;20225;-63
2021/01/29 21:27:02;;;;;;;10.30;4.27;;;8.50;99.90;;;;;;4923620;29;20580;-63
2021/01/29 21:29:39;;;;;;;6.03;4.40;;;8.50;99.90;;;;;;4934358;29;20221;-63